Time;durP1;ratioP1;P1;durP2;ratioP2;P2;SDS_P1;SDS_P2;PMS_P1;PMS_P2;Temp;Humidity;BMP_temperature;BMP_pressure;BME280_temperature;BME280_humidity;BME280_pressure;Samples;Min_cycle;Max_cycle;Signal;HPM_P1;HPM_P2
2021/12/28 00:00:09;;;;;;;;;;;;;;;;;;1011475;29;781;-25
2021/12/28 00:00:42;;;;;;;;;;;;;;;;;;1011687;29;788;-25
2021/12/28 00:01:13;;;;;;;;;;;;;;;;;;1011448;29;1347;-25
2021/12/28 00:01:44;;;;;;;;;;;;;;;;;;1011588;29;955;-25
2021/12/28 00:02:14;;;;;;;;;;;;;;;;;;1011506;29;820;-25
2021/12/28 00:02:46;;;;;;;;;;;;;;;;;;1011498;29;943;-25
2021/12/28 00:03:17;;;;;;;;;;;;;;;;;;1011315;29;878;-25
2021/12/28 00:03:47;;;;;;;;;;;;;;;;;;1011634;29;982;-25
2021/12/28 00:04:17;;;;;;;;;;;;;;;;;;1011487;29;816;-25
2021/12/28 00:04:47;;;;;;;;;;;;;;;;;;1011586;29;983;-25
2021/12/28 00:05:18;;;;;;;;;;;;;;;;;;1011437;29;923;-25
2021/12/28 00:05:49;;;;;;;;;;;;;;;;;;1011439;29;920;-25
2021/12/28 00:06:20;;;;;;;;;;;;;;;;;;1011366;29;1220;-25
2021/12/28 00:06:50;;;;;;;;;;;;;;;;;;1011459;29;891;-25
2021/12/28 00:07:20;;;;;;;;;;;;;;;;;;1011518;29;942;-25
2021/12/28 00:07:51;;;;;;;;;;;;;;;;;;1011520;29;926;-25
2021/12/28 00:08:22;;;;;;;;;;;;;;;;;;1011488;29;984;-25
2021/12/28 00:08:52;;;;;;;;;;;;;;;;;;1011546;29;950;-25
2021/12/28 00:09:22;;;;;;;;;;;;;;;;;;1011375;29;947;-25
2021/12/28 00:09:53;;;;;;;;;;;;;;;;;;1011529;29;927;-25
2021/12/28 00:10:23;;;;;;;;;;;;;;;;;;1011618;29;895;-25
2021/12/28 00:10:55;;;;;;;;;;;;;;;;;;1011427;29;990;-25
2021/12/28 00:11:25;;;;;;;;;;;;;;;;;;1011538;29;931;-25
2021/12/28 00:11:56;;;;;;;;;;;;;;;;;;1011497;29;985;-25
2021/12/28 00:12:29;;;;;;;;;;;;;;;;;;1011587;29;868;-25
2021/12/28 00:13:00;;;;;;;;;;;;;;;;;;1011543;29;898;-25
2021/12/28 00:13:32;;;;;;;;;;;;;;;;;;1011313;29;970;-25
2021/12/28 00:14:04;;;;;;;;;;;;;;;;;;1011537;29;1113;-25
2021/12/28 00:14:37;;;;;;;;;;;;;;;;;;1011406;29;946;-25
2021/12/28 00:18:11;;;;;;;;;;;;;;;;;;1008772;29;1005;-25
2021/12/28 00:18:41;;;;;;;;;;;;;;;;;;1011516;29;926;-25
2021/12/28 00:19:12;;;;;;;;;;;;;;;;;;1010661;29;954;-25
2021/12/28 00:19:42;;;;;;;;;;;;;;;;;;1011237;29;803;-25
2021/12/28 00:20:13;;;;;;;;;;;;;;;;;;1010491;29;1026;-25
2021/12/28 00:20:46;;;;;;;;;;;;;;;;;;1007376;29;1257;-25
2021/12/28 00:21:18;;;;;;;;;;;;;;;;;;1007254;29;934;-25
2021/12/28 00:21:48;;;;;;;;;;;;;;;;;;1003405;29;978;-25
2021/12/28 00:22:19;;;;;;;;;;;;;;;;;;1000217;29;848;-25
2021/12/28 00:22:49;;;;;;;;;;;;;;;;;;1003500;29;884;-25
2021/12/28 00:23:21;;;;;;;;;;;;;;;;;;1003765;29;808;-25
2021/12/28 00:23:51;;;;;;;;;;;;;;;;;;1007384;29;923;-25
2021/12/28 00:24:22;;;;;;;;;;;;;;;;;;1011506;29;887;-25
2021/12/28 00:24:52;;;;;;;;;;;;;;;;;;1011515;29;938;-25
2021/12/28 00:25:22;;;;;;;;;;;;;;;;;;1011460;29;895;-25
2021/12/28 00:25:53;;;;;;;;;;;;;;;;;;1011348;29;1028;-25
2021/12/28 00:26:24;;;;;;;;;;;;;;;;;;1011425;29;915;-25
2021/12/28 00:26:56;;;;;;;;;;;;;;;;;;1011574;29;1006;-25
2021/12/28 00:27:26;;;;;;;;;;;;;;;;;;1011502;29;1156;-25
2021/12/28 00:27:58;;;;;;;;;;;;;;;;;;1011435;29;919;-25
2021/12/28 00:28:28;;;;;;;;;;;;;;;;;;1011591;29;918;-25
2021/12/28 00:28:58;;;;;;;;;;;;;;;;;;1011411;29;1010;-25
2021/12/28 00:29:30;;;;;;;;;;;;;;;;;;1007192;29;1401;-25
2021/12/28 00:30:03;;;;;;;;;;;;;;;;;;1011162;29;1159;-25
2021/12/28 00:30:33;;;;;;;;;;;;;;;;;;1010892;29;922;-25
2021/12/28 00:31:04;;;;;;;;;;;;;;;;;;1007434;29;977;-25
2021/12/28 00:31:34;;;;;;;;;;;;;;;;;;1007276;29;990;-25
2021/12/28 00:32:05;;;;;;;;;;;;;;;;;;1007218;29;946;-25
2021/12/28 00:32:35;;;;;;;;;;;;;;;;;;1007427;29;1010;-25
2021/12/28 00:33:06;;;;;;;;;;;;;;;;;;1011484;29;911;-25
2021/12/28 00:33:36;;;;;;;;;;;;;;;;;;1011454;29;847;-25
2021/12/28 00:34:07;;;;;;;;;;;;;;;;;;1011641;29;872;-25
2021/12/28 00:34:37;;;;;;;;;;;;;;;;;;1011362;29;930;-25
2021/12/28 00:35:08;;;;;;;;;;;;;;;;;;1011527;29;935;-25
2021/12/28 00:35:39;;;;;;;;;;;;;;;;;;1011312;29;950;-25
2021/12/28 00:36:10;;;;;;;;;;;;;;;;;;1011040;29;943;-25
2021/12/28 00:36:42;;;;;;;;;;;;;;;;;;1011239;29;903;-25
2021/12/28 00:37:12;;;;;;;;;;;;;;;;;;1011008;29;1906;-25
2021/12/28 00:37:43;;;;;;;;;;;;;;;;;;1011272;29;938;-25
2021/12/28 00:38:18;;;;;;;;;;;;;;;;;;1011528;29;966;-25
2021/12/28 00:38:48;;;;;;;;;;;;;;;;;;1011469;29;923;-25
2021/12/28 00:39:19;;;;;;;;;;;;;;;;;;1011343;29;922;-25
2021/12/28 00:39:49;;;;;;;;;;;;;;;;;;1011547;29;947;-25
2021/12/28 00:40:19;;;;;;;;;;;;;;;;;;1011459;29;887;-25
2021/12/28 00:40:51;;;;;;;;;;;;;;;;;;1011398;29;1025;-25
2021/12/28 00:41:21;;;;;;;;;;;;;;;;;;1011453;29;910;-25
2021/12/28 00:41:52;;;;;;;;;;;;;;;;;;1011094;29;1090;-25
2021/12/28 00:42:22;;;;;;;;;;;;;;;;;;1011517;29;891;-25
2021/12/28 00:42:53;;;;;;;;;;;;;;;;;;1011209;29;1015;-25
2021/12/28 00:43:25;;;;;;;;;;;;;;;;;;1011100;29;1181;-25
2021/12/28 00:43:55;;;;;;;;;;;;;;;;;;1011076;29;847;-25
2021/12/28 00:44:26;;;;;;;;;;;;;;;;;;1010882;29;1157;-25
2021/12/28 00:44:56;;;;;;;;;;;;;;;;;;1010992;29;864;-25
2021/12/28 00:45:27;;;;;;;;;;;;;;;;;;1010944;29;1005;-25
2021/12/28 00:45:57;;;;;;;;;;;;;;;;;;1011044;29;1002;-25
2021/12/28 00:46:28;;;;;;;;;;;;;;;;;;1011126;29;974;-25
2021/12/28 00:46:58;;;;;;;;;;;;;;;;;;1011537;29;1037;-25
2021/12/28 00:47:29;;;;;;;;;;;;;;;;;;1011812;29;684;-25
2021/12/28 00:47:59;;;;;;;;;;;;;;;;;;1011843;29;978;-25
2021/12/28 00:48:30;;;;;;;;;;;;;;;;;;1011828;29;796;-25
2021/12/28 00:49:00;;;;;;;;;;;;;;;;;;1011938;29;942;-25
2021/12/28 00:49:31;;;;;;;;;;;;;;;;;;1012081;29;852;-25
2021/12/28 00:50:02;;;;;;;;;;;;;;;;;;1012248;29;930;-25
2021/12/28 00:50:32;;;;;;;;;;;;;;;;;;1012026;29;876;-25
2021/12/28 00:51:03;;;;;;;;;;;;;;;;;;1012338;29;812;-25
2021/12/28 00:51:34;;;;;;;;;;;;;;;;;;1012014;29;1010;-25
2021/12/28 00:52:04;;;;;;;;;;;;;;;;;;1012230;29;923;-25
2021/12/28 00:52:34;;;;;;;;;;;;;;;;;;1012069;29;1278;-25
2021/12/28 00:53:05;;;;;;;;;;;;;;;;;;1012165;29;927;-25
2021/12/28 00:53:35;;;;;;;;;;;;;;;;;;1012005;29;938;-25
2021/12/28 00:54:06;;;;;;;;;;;;;;;;;;1012293;29;994;-25
2021/12/28 00:54:36;;;;;;;;;;;;;;;;;;1012033;29;789;-25
2021/12/28 00:55:07;;;;;;;;;;;;;;;;;;1012314;29;816;-25
2021/12/28 00:55:37;;;;;;;;;;;;;;;;;;1011794;29;934;-25
2021/12/28 00:56:08;;;;;;;;;;;;;;;;;;1012286;29;894;-25
2021/12/28 00:56:38;;;;;;;;;;;;;;;;;;1012063;29;880;-25
2021/12/28 00:57:08;;;;;;;;;;;;;;;;;;1012098;29;1911;-25
2021/12/28 00:57:39;;;;;;;;;;;;;;;;;;1011991;29;866;-25
2021/12/28 00:58:09;;;;;;;;;;;;;;;;;;1012290;29;947;-25
2021/12/28 00:58:40;;;;;;;;;;;;;;;;;;1012100;29;951;-25
2021/12/28 00:59:10;;;;;;;;;;;;;;;;;;1011738;29;1194;-25
2021/12/28 00:59:41;;;;;;;;;;;;;;;;;;1011643;29;1227;-25
2021/12/28 01:00:13;;;;;;;;;;;;;;;;;;1011816;29;950;-25
2021/12/28 01:00:44;;;;;;;;;;;;;;;;;;1011845;29;950;-25
2021/12/28 01:01:15;;;;;;;;;;;;;;;;;;1012051;29;963;-25
2021/12/28 01:01:47;;;;;;;;;;;;;;;;;;1012115;29;943;-25
2021/12/28 01:02:17;;;;;;;;;;;;;;;;;;1012191;29;875;-25
2021/12/28 01:02:48;;;;;;;;;;;;;;;;;;1011744;29;958;-25
2021/12/28 01:03:19;;;;;;;;;;;;;;;;;;1011793;29;998;-25
2021/12/28 01:03:50;;;;;;;;;;;;;;;;;;1011502;29;998;-25
2021/12/28 01:04:20;;;;;;;;;;;;;;;;;;1011986;29;923;-25
2021/12/28 01:04:51;;;;;;;;;;;;;;;;;;1012026;29;874;-25
2021/12/28 01:05:21;;;;;;;;;;;;;;;;;;1012161;29;951;-25
2021/12/28 01:05:52;;;;;;;;;;;;;;;;;;1011882;29;835;-25
2021/12/28 01:06:22;;;;;;;;;;;;;;;;;;1011933;29;1040;-25
2021/12/28 01:06:53;;;;;;;;;;;;;;;;;;1012082;29;915;-25
2021/12/28 01:07:23;;;;;;;;;;;;;;;;;;1012214;29;788;-25
2021/12/28 01:07:55;;;;;;;;;;;;;;;;;;1012000;29;1118;-25
2021/12/28 01:08:27;;;;;;;;;;;;;;;;;;1012189;29;927;-25
2021/12/28 01:08:57;;;;;;;;;;;;;;;;;;1011969;29;994;-25
2021/12/28 01:09:30;;;;;;;;;;;;;;;;;;1012259;29;825;-25
2021/12/28 01:10:03;;;;;;;;;;;;;;;;;;1012197;29;871;-25
2021/12/28 01:10:35;;;;;;;;;;;;;;;;;;1011975;29;951;-25
2021/12/28 01:11:07;;;;;;;;;;;;;;;;;;1012167;29;1002;-25
2021/12/28 01:11:38;;;;;;;;;;;;;;;;;;1011887;29;891;-25
2021/12/28 01:12:09;;;;;;;;;;;;;;;;;;1011909;29;899;-25
2021/12/28 01:12:40;;;;;;;;;;;;;;;;;;1011818;29;820;-25
2021/12/28 01:13:10;;;;;;;;;;;;;;;;;;1011714;29;939;-25
2021/12/28 01:13:41;;;;;;;;;;;;;;;;;;1011822;29;943;-25
2021/12/28 01:14:11;;;;;;;;;;;;;;;;;;1011985;29;1109;-25
2021/12/28 01:14:41;;;;;;;;;;;;;;;;;;1011770;29;930;-25
2021/12/28 01:15:13;;;;;;;;;;;;;;;;;;1011785;29;887;-25
2021/12/28 01:15:44;;;;;;;;;;;;;;;;;;1011600;29;1034;-25
2021/12/28 01:16:14;;;;;;;;;;;;;;;;;;1011835;29;879;-25
2021/12/28 01:16:45;;;;;;;;;;;;;;;;;;1012010;29;950;-25
2021/12/28 01:17:15;;;;;;;;;;;;;;;;;;1011999;29;1911;-25
2021/12/28 01:17:46;;;;;;;;;;;;;;;;;;1012234;29;891;-25
2021/12/28 01:18:16;;;;;;;;;;;;;;;;;;1012055;29;904;-25
2021/12/28 01:18:47;;;;;;;;;;;;;;;;;;1012162;29;792;-25
2021/12/28 01:19:18;;;;;;;;;;;;;;;;;;1012117;29;888;-25
2021/12/28 01:19:48;;;;;;;;;;;;;;;;;;1011770;29;864;-25
2021/12/28 01:20:19;;;;;;;;;;;;;;;;;;1011743;29;871;-25
2021/12/28 01:20:50;;;;;;;;;;;;;;;;;;1011630;29;839;-25
2021/12/28 01:21:20;;;;;;;;;;;;;;;;;;1011808;29;1726;-25
2021/12/28 01:21:51;;;;;;;;;;;;;;;;;;1012007;29;915;-25
2021/12/28 01:22:22;;;;;;;;;;;;;;;;;;1012185;29;935;-25
2021/12/28 01:22:52;;;;;;;;;;;;;;;;;;1011911;29;989;-25
2021/12/28 01:23:23;;;;;;;;;;;;;;;;;;1012163;29;895;-25
2021/12/28 01:23:53;;;;;;;;;;;;;;;;;;1012022;29;836;-25
2021/12/28 01:24:24;;;;;;;;;;;;;;;;;;1012271;29;899;-25
2021/12/28 01:24:54;;;;;;;;;;;;;;;;;;1011935;29;840;-25
2021/12/28 01:25:25;;;;;;;;;;;;;;;;;;1012241;29;824;-25
2021/12/28 01:25:55;;;;;;;;;;;;;;;;;;1011837;29;1187;-25
2021/12/28 01:26:25;;;;;;;;;;;;;;;;;;1012096;29;867;-25
2021/12/28 01:26:56;;;;;;;;;;;;;;;;;;1011876;29;973;-25
2021/12/28 01:27:27;;;;;;;;;;;;;;;;;;1012106;29;990;-25
2021/12/28 01:27:57;;;;;;;;;;;;;;;;;;1012005;29;1018;-25
2021/12/28 01:28:27;;;;;;;;;;;;;;;;;;1012106;29;1002;-25
2021/12/28 01:28:58;;;;;;;;;;;;;;;;;;1011897;29;904;-25
2021/12/28 01:29:28;;;;;;;;;;;;;;;;;;1012133;29;887;-25
2021/12/28 01:29:59;;;;;;;;;;;;;;;;;;1011963;29;907;-25
2021/12/28 01:30:29;;;;;;;;;;;;;;;;;;1012000;29;915;-25
2021/12/28 01:31:00;;;;;;;;;;;;;;;;;;1012054;29;1010;-25
2021/12/28 01:31:30;;;;;;;;;;;;;;;;;;1011991;29;911;-25
2021/12/28 01:32:00;;;;;;;;;;;;;;;;;;1011944;29;987;-25
2021/12/28 01:32:31;;;;;;;;;;;;;;;;;;1012046;29;985;-25
2021/12/28 01:33:02;;;;;;;;;;;;;;;;;;1011979;29;884;-25
2021/12/28 01:33:33;;;;;;;;;;;;;;;;;;1011679;29;1006;-26
2021/12/28 01:34:04;;;;;;;;;;;;;;;;;;1011631;29;970;-25
2021/12/28 01:34:35;;;;;;;;;;;;;;;;;;1011744;29;867;-25
2021/12/28 01:35:07;;;;;;;;;;;;;;;;;;1011725;29;836;-25
2021/12/28 01:35:37;;;;;;;;;;;;;;;;;;1011797;29;875;-25
2021/12/28 01:36:08;;;;;;;;;;;;;;;;;;1012025;29;923;-25
2021/12/28 01:36:38;;;;;;;;;;;;;;;;;;1011987;29;923;-25
2021/12/28 01:37:09;;;;;;;;;;;;;;;;;;1011992;29;1903;-25
2021/12/28 01:37:40;;;;;;;;;;;;;;;;;;1011996;29;559;-25
2021/12/28 01:38:10;;;;;;;;;;;;;;;;;;1011911;29;800;-25
2021/12/28 01:38:41;;;;;;;;;;;;;;;;;;1012110;29;888;-25
2021/12/28 01:39:11;;;;;;;;;;;;;;;;;;1011949;29;963;-25
2021/12/28 01:39:42;;;;;;;;;;;;;;;;;;1011892;29;1079;-25
2021/12/28 01:40:14;;;;;;;;;;;;;;;;;;1012048;29;895;-25
2021/12/28 01:40:44;;;;;;;;;;;;;;;;;;1011950;29;894;-25
2021/12/28 01:41:15;;;;;;;;;;;;;;;;;;1011994;29;890;-25
2021/12/28 01:41:45;;;;;;;;;;;;;;;;;;1012014;29;974;-25
2021/12/28 01:42:15;;;;;;;;;;;;;;;;;;1011922;29;927;-25
2021/12/28 01:43:24;;;;;;;;;;;;;;;;;;1012003;29;923;-25
2021/12/28 01:43:58;;;;;;;;;;;;;;;;;;1003503;29;1435;-25
2021/12/28 01:44:29;;;;;;;;;;;;;;;;;;1003721;29;896;-25
2021/12/28 01:45:02;;;;;;;;;;;;;;;;;;1003639;29;943;-25
2021/12/28 01:45:40;;;;;;;;;;;;;;;;;;1003568;29;1052;-25
2021/12/28 01:46:11;;;;;;;;;;;;;;;;;;1003360;29;880;-25
2021/12/28 01:46:41;;;;;;;;;;;;;;;;;;1003811;29;964;-25
2021/12/28 01:47:15;;;;;;;;;;;;;;;;;;1003551;29;1014;-25
2021/12/28 01:47:46;;;;;;;;;;;;;;;;;;999724;29;1208;-25
2021/12/28 01:48:18;;;;;;;;;;;;;;;;;;999816;29;936;-25
2021/12/28 01:48:48;;;;;;;;;;;;;;;;;;999854;29;994;-25
2021/12/28 01:49:19;;;;;;;;;;;;;;;;;;999983;29;805;-25
2021/12/28 01:49:49;;;;;;;;;;;;;;;;;;1007482;29;1127;-25
2021/12/28 01:50:20;;;;;;;;;;;;;;;;;;1011848;29;1002;-25
2021/12/28 01:50:52;;;;;;;;;;;;;;;;;;1011982;29;995;-25
2021/12/28 01:51:24;;;;;;;;;;;;;;;;;;1012045;29;955;-25
2021/12/28 01:51:54;;;;;;;;;;;;;;;;;;1011856;29;954;-25
2021/12/28 01:52:24;;;;;;;;;;;;;;;;;;1012006;29;864;-25
2021/12/28 01:52:55;;;;;;;;;;;;;;;;;;1011768;29;939;-25
2021/12/28 01:53:26;;;;;;;;;;;;;;;;;;1012038;29;966;-25
2021/12/28 01:53:57;;;;;;;;;;;;;;;;;;1011908;29;939;-25
2021/12/28 01:54:27;;;;;;;;;;;;;;;;;;1011928;29;859;-25
2021/12/28 01:54:58;;;;;;;;;;;;;;;;;;1011933;29;930;-25
2021/12/28 01:55:28;;;;;;;;;;;;;;;;;;1011889;29;966;-25
2021/12/28 01:56:00;;;;;;;;;;;;;;;;;;1011921;29;1099;-25
2021/12/28 01:56:44;;;;;;;;;;;;;;;;;;1011810;29;935;-25
2021/12/28 01:57:17;;;;;;;;;;;;;;;;;;1011703;29;1976;-25
2021/12/28 01:57:47;;;;;;;;;;;;;;;;;;1011974;29;859;-25
2021/12/28 01:58:18;;;;;;;;;;;;;;;;;;1011701;29;801;-25
2021/12/28 01:58:49;;;;;;;;;;;;;;;;;;1011531;29;970;-25
2021/12/28 01:59:20;;;;;;;;;;;;;;;;;;1012079;29;784;-25
2021/12/28 01:59:51;;;;;;;;;;;;;;;;;;1011778;29;1349;-25
2021/12/28 02:00:23;;;;;;;;;;;;;;;;;;1012115;29;910;-25
2021/12/28 02:00:54;;;;;;;;;;;;;;;;;;1011887;29;955;-25
2021/12/28 02:01:25;;;;;;;;;;;;;;;;;;1011863;29;942;-25
2021/12/28 02:01:56;;;;;;;;;;;;;;;;;;1012071;29;1082;-25
2021/12/28 02:02:27;;;;;;;;;;;;;;;;;;1011686;29;816;-25
2021/12/28 02:02:57;;;;;;;;;;;;;;;;;;1011965;29;875;-25
2021/12/28 02:03:29;;;;;;;;;;;;;;;;;;1011863;29;796;-25
2021/12/28 02:04:01;;;;;;;;;;;;;;;;;;1011909;29;954;-25
2021/12/28 02:04:32;;;;;;;;;;;;;;;;;;1011891;29;1433;-25
2021/12/28 02:05:02;;;;;;;;;;;;;;;;;;1011810;29;934;-25
2021/12/28 02:05:33;;;;;;;;;;;;;;;;;;1011846;29;957;-25
2021/12/28 02:06:03;;;;;;;;;;;;;;;;;;1011917;29;1001;-25
2021/12/28 02:06:34;;;;;;;;;;;;;;;;;;1011845;29;1094;-25
2021/12/28 02:07:04;;;;;;;;;;;;;;;;;;1011786;29;847;-25
2021/12/28 02:07:34;;;;;;;;;;;;;;;;;;1011948;29;902;-25
2021/12/28 02:08:06;;;;;;;;;;;;;;;;;;1011936;29;1029;-25
2021/12/28 02:08:37;;;;;;;;;;;;;;;;;;1012048;29;950;-25
2021/12/28 02:09:07;;;;;;;;;;;;;;;;;;1011731;29;1029;-25
2021/12/28 02:09:38;;;;;;;;;;;;;;;;;;1011657;29;1160;-25
2021/12/28 02:10:08;;;;;;;;;;;;;;;;;;1011379;29;935;-25
2021/12/28 02:10:39;;;;;;;;;;;;;;;;;;1011639;29;803;-25
2021/12/28 02:11:10;;;;;;;;;;;;;;;;;;1011417;29;824;-25
2021/12/28 02:11:41;;;;;;;;;;;;;;;;;;1011908;29;938;-25
2021/12/28 02:12:11;;;;;;;;;;;;;;;;;;1011879;29;931;-25
2021/12/28 02:12:42;;;;;;;;;;;;;;;;;;1011908;29;954;-25
2021/12/28 02:13:12;;;;;;;;;;;;;;;;;;1011640;29;1165;-24
2021/12/28 02:13:43;;;;;;;;;;;;;;;;;;1011915;29;1021;-25
2021/12/28 02:14:13;;;;;;;;;;;;;;;;;;1011763;29;1113;-25
2021/12/28 02:14:44;;;;;;;;;;;;;;;;;;1011857;29;942;-25
2021/12/28 02:15:15;;;;;;;;;;;;;;;;;;1011851;29;934;-25
2021/12/28 02:15:46;;;;;;;;;;;;;;;;;;1011733;29;966;-25
2021/12/28 02:16:17;;;;;;;;;;;;;;;;;;1012011;29;966;-25
2021/12/28 02:16:47;;;;;;;;;;;;;;;;;;1011790;29;946;-25
2021/12/28 02:17:18;;;;;;;;;;;;;;;;;;1011788;29;1903;-25
2021/12/28 02:17:48;;;;;;;;;;;;;;;;;;1011841;29;1009;-25
2021/12/28 02:18:20;;;;;;;;;;;;;;;;;;1011836;29;958;-25
2021/12/28 02:18:50;;;;;;;;;;;;;;;;;;1011874;29;1029;-25
2021/12/28 02:19:20;;;;;;;;;;;;;;;;;;1011812;29;931;-25
2021/12/28 02:19:51;;;;;;;;;;;;;;;;;;1011755;29;997;-25
2021/12/28 02:20:21;;;;;;;;;;;;;;;;;;1011905;29;954;-25
2021/12/28 02:20:52;;;;;;;;;;;;;;;;;;1011755;29;812;-25
2021/12/28 02:21:22;;;;;;;;;;;;;;;;;;1011863;29;902;-25
2021/12/28 02:21:53;;;;;;;;;;;;;;;;;;1011819;29;883;-25
2021/12/28 02:22:23;;;;;;;;;;;;;;;;;;1011423;29;800;-25
2021/12/28 02:22:53;;;;;;;;;;;;;;;;;;1011536;29;1099;-25
2021/12/28 02:23:24;;;;;;;;;;;;;;;;;;1011372;29;989;-25
2021/12/28 02:23:54;;;;;;;;;;;;;;;;;;1011545;29;1021;-25
2021/12/28 02:24:25;;;;;;;;;;;;;;;;;;1011855;29;918;-25
2021/12/28 02:24:55;;;;;;;;;;;;;;;;;;1011835;29;953;-25
2021/12/28 02:25:26;;;;;;;;;;;;;;;;;;1011862;29;986;-25
2021/12/28 02:25:56;;;;;;;;;;;;;;;;;;1011732;29;1006;-25
2021/12/28 02:26:27;;;;;;;;;;;;;;;;;;1011655;29;1227;-25
2021/12/28 02:26:57;;;;;;;;;;;;;;;;;;1011920;29;994;-25
2021/12/28 02:27:28;;;;;;;;;;;;;;;;;;1011734;29;880;-25
2021/12/28 02:27:59;;;;;;;;;;;;;;;;;;1011798;29;963;-25
2021/12/28 02:28:29;;;;;;;;;;;;;;;;;;1011786;29;792;-25
2021/12/28 02:29:00;;;;;;;;;;;;;;;;;;1011540;29;895;-25
2021/12/28 02:29:30;;;;;;;;;;;;;;;;;;1011487;29;876;-25
2021/12/28 02:30:02;;;;;;;;;;;;;;;;;;1011451;29;588;-25
2021/12/28 02:30:34;;;;;;;;;;;;;;;;;;1011471;29;1257;-25
2021/12/28 02:31:04;;;;;;;;;;;;;;;;;;1011453;29;851;-24
2021/12/28 02:31:35;;;;;;;;;;;;;;;;;;1011468;29;938;-25
2021/12/28 02:32:06;;;;;;;;;;;;;;;;;;1011449;29;859;-25
2021/12/28 02:32:38;;;;;;;;;;;;;;;;;;1007426;29;1179;-25
2021/12/28 02:33:09;;;;;;;;;;;;;;;;;;1007562;29;868;-25
2021/12/28 02:33:39;;;;;;;;;;;;;;;;;;1007644;29;796;-25
2021/12/28 02:34:10;;;;;;;;;;;;;;;;;;1007755;29;891;-25
2021/12/28 02:34:40;;;;;;;;;;;;;;;;;;1011829;29;895;-25
2021/12/28 02:35:13;;;;;;;;;;;;;;;;;;1011760;29;883;-25
2021/12/28 02:35:43;;;;;;;;;;;;;;;;;;1011597;29;788;-25
2021/12/28 02:36:14;;;;;;;;;;;;;;;;;;1011856;29;832;-25
2021/12/28 02:36:45;;;;;;;;;;;;;;;;;;1011712;29;819;-25
2021/12/28 02:37:15;;;;;;;;;;;;;;;;;;1011809;29;1971;-25
2021/12/28 02:37:46;;;;;;;;;;;;;;;;;;1011700;29;911;-25
2021/12/28 02:38:16;;;;;;;;;;;;;;;;;;1011740;29;939;-25
2021/12/28 02:38:47;;;;;;;;;;;;;;;;;;1011431;29;1694;-25
2021/12/28 02:39:18;;;;;;;;;;;;;;;;;;1011443;29;836;-25
2021/12/28 02:39:48;;;;;;;;;;;;;;;;;;1011523;29;891;-25
2021/12/28 02:40:21;;;;;;;;;;;;;;;;;;1011396;29;965;-25
2021/12/28 02:40:51;;;;;;;;;;;;;;;;;;1011714;29;891;-25
2021/12/28 02:41:22;;;;;;;;;;;;;;;;;;1011689;29;1013;-24
2021/12/28 02:41:53;;;;;;;;;;;;;;;;;;1011796;29;820;-25
2021/12/28 02:42:24;;;;;;;;;;;;;;;;;;1011771;29;907;-25
2021/12/28 02:42:56;;;;;;;;;;;;;;;;;;1011817;29;954;-25
2021/12/28 02:43:26;;;;;;;;;;;;;;;;;;1011614;29;847;-25
2021/12/28 02:44:00;;;;;;;;;;;;;;;;;;1011880;29;923;-25
2021/12/28 02:44:31;;;;;;;;;;;;;;;;;;1011597;29;855;-25
2021/12/28 02:45:10;;;;;;;;;;;;;;;;;;1007512;29;771;-25
2021/12/28 02:45:54;;;;;;;;;;;;;;;;;;1007461;29;935;-25
2021/12/28 02:46:25;;;;;;;;;;;;;;;;;;1007499;29;947;-25
2021/12/28 02:46:55;;;;;;;;;;;;;;;;;;1007534;29;962;-25
2021/12/28 02:47:25;;;;;;;;;;;;;;;;;;1007389;29;868;-25
2021/12/28 02:47:56;;;;;;;;;;;;;;;;;;1007753;29;939;-25
2021/12/28 02:48:27;;;;;;;;;;;;;;;;;;1003562;29;960;-25
2021/12/28 02:48:57;;;;;;;;;;;;;;;;;;1007575;29;864;-25
2021/12/28 02:49:28;;;;;;;;;;;;;;;;;;1007548;29;979;-25
2021/12/28 02:49:58;;;;;;;;;;;;;;;;;;1007665;29;915;-25
2021/12/28 02:50:28;;;;;;;;;;;;;;;;;;1011636;29;982;-25
2021/12/28 02:51:04;;;;;;;;;;;;;;;;;;1011854;29;986;-25
2021/12/28 02:51:34;;;;;;;;;;;;;;;;;;1011724;29;986;-25
2021/12/28 02:52:09;;;;;;;;;;;;;;;;;;1011296;29;979;-25
2021/12/28 02:52:40;;;;;;;;;;;;;;;;;;1011333;29;820;-25
2021/12/28 02:53:11;;;;;;;;;;;;;;;;;;1011354;29;1342;-25
2021/12/28 02:53:42;;;;;;;;;;;;;;;;;;1011470;29;928;-25
2021/12/28 02:54:12;;;;;;;;;;;;;;;;;;1011827;29;974;-25
2021/12/28 02:54:42;;;;;;;;;;;;;;;;;;1011637;29;1013;-25
2021/12/28 02:55:14;;;;;;;;;;;;;;;;;;1011700;29;761;-25
2021/12/28 02:55:45;;;;;;;;;;;;;;;;;;1011566;29;990;-25
2021/12/28 02:56:16;;;;;;;;;;;;;;;;;;1011837;29;906;-25
2021/12/28 02:56:47;;;;;;;;;;;;;;;;;;1011575;29;824;-25
2021/12/28 02:57:17;;;;;;;;;;;;;;;;;;1011645;29;1975;-25
2021/12/28 02:57:48;;;;;;;;;;;;;;;;;;1011615;29;797;-25
2021/12/28 02:58:24;;;;;;;;;;;;;;;;;;1011858;29;899;-25
2021/12/28 02:58:54;;;;;;;;;;;;;;;;;;1011851;29;935;-25
2021/12/28 02:59:24;;;;;;;;;;;;;;;;;;1011063;29;1392;-25
2021/12/28 02:59:55;;;;;;;;;;;;;;;;;;1011530;29;927;-25
2021/12/28 03:00:37;;;;;;;;;;;;;;;;;;1011305;29;757;-25
2021/12/28 03:01:09;;;;;;;;;;;;;;;;;;1011558;29;872;-25
2021/12/28 03:01:40;;;;;;;;;;;;;;;;;;1011625;29;646;-25
2021/12/28 03:02:11;;;;;;;;;;;;;;;;;;1011590;29;1013;-25
2021/12/28 03:02:41;;;;;;;;;;;;;;;;;;1011735;29;982;-25
2021/12/28 03:03:16;;;;;;;;;;;;;;;;;;1011651;29;943;-25
2021/12/28 03:03:47;;;;;;;;;;;;;;;;;;1011628;29;994;-25
2021/12/28 03:04:18;;;;;;;;;;;;;;;;;;1011727;29;910;-25
2021/12/28 03:04:48;;;;;;;;;;;;;;;;;;1011610;29;935;-25
2021/12/28 03:05:18;;;;;;;;;;;;;;;;;;1011846;29;880;-25
2021/12/28 03:05:51;;;;;;;;;;;;;;;;;;1011354;29;891;-25
2021/12/28 03:06:22;;;;;;;;;;;;;;;;;;1011601;29;1200;-25
2021/12/28 03:06:53;;;;;;;;;;;;;;;;;;1011690;29;994;-25
2021/12/28 03:07:24;;;;;;;;;;;;;;;;;;1011628;29;805;-25
2021/12/28 03:07:54;;;;;;;;;;;;;;;;;;1011660;29;971;-25
2021/12/28 03:08:26;;;;;;;;;;;;;;;;;;1011604;29;966;-25
2021/12/28 03:08:58;;;;;;;;;;;;;;;;;;1011701;29;931;-25
2021/12/28 03:09:28;;;;;;;;;;;;;;;;;;1011671;29;816;-25
2021/12/28 03:09:59;;;;;;;;;;;;;;;;;;1011420;29;773;-25
2021/12/28 03:10:29;;;;;;;;;;;;;;;;;;1011222;29;934;-25
2021/12/28 03:11:01;;;;;;;;;;;;;;;;;;1011598;29;927;-25
2021/12/28 03:11:31;;;;;;;;;;;;;;;;;;1011533;29;935;-25
2021/12/28 03:12:03;;;;;;;;;;;;;;;;;;1011626;29;1029;-25
2021/12/28 03:12:33;;;;;;;;;;;;;;;;;;1011472;29;997;-25
2021/12/28 03:13:05;;;;;;;;;;;;;;;;;;1011609;29;962;-25
2021/12/28 03:13:37;;;;;;;;;;;;;;;;;;1009639;29;953;-25
2021/12/28 03:14:08;;;;;;;;;;;;;;;;;;1011464;29;1159;-25
2021/12/28 03:14:38;;;;;;;;;;;;;;;;;;1007496;29;940;-25
2021/12/28 03:15:08;;;;;;;;;;;;;;;;;;1007729;29;817;-25
2021/12/28 03:15:39;;;;;;;;;;;;;;;;;;1007721;29;952;-25
2021/12/28 03:16:10;;;;;;;;;;;;;;;;;;1007694;29;943;-25
2021/12/28 03:16:41;;;;;;;;;;;;;;;;;;1007563;29;951;-25
2021/12/28 03:17:11;;;;;;;;;;;;;;;;;;1007800;29;1998;-25
2021/12/28 03:17:42;;;;;;;;;;;;;;;;;;1007672;29;1252;-25
2021/12/28 03:18:13;;;;;;;;;;;;;;;;;;1007814;29;959;-25
2021/12/28 03:18:44;;;;;;;;;;;;;;;;;;1007739;29;868;-25
2021/12/28 03:19:14;;;;;;;;;;;;;;;;;;1007776;29;1085;-24
2021/12/28 03:19:45;;;;;;;;;;;;;;;;;;1007728;29;932;-25
2021/12/28 03:20:16;;;;;;;;;;;;;;;;;;1007785;29;962;-25
2021/12/28 03:20:47;;;;;;;;;;;;;;;;;;1007700;29;970;-25
2021/12/28 03:21:18;;;;;;;;;;;;;;;;;;1007933;29;939;-25
2021/12/28 03:21:50;;;;;;;;;;;;;;;;;;1007600;29;876;-25
2021/12/28 03:22:21;;;;;;;;;;;;;;;;;;1007821;29;923;-25
2021/12/28 03:22:51;;;;;;;;;;;;;;;;;;1007613;29;955;-25
2021/12/28 03:23:22;;;;;;;;;;;;;;;;;;1007807;29;1018;-25
2021/12/28 03:23:54;;;;;;;;;;;;;;;;;;1007759;29;852;-25
2021/12/28 03:24:25;;;;;;;;;;;;;;;;;;1007654;29;978;-25
2021/12/28 03:24:56;;;;;;;;;;;;;;;;;;1007779;29;900;-25
2021/12/28 03:25:26;;;;;;;;;;;;;;;;;;1007861;29;781;-25
2021/12/28 03:25:57;;;;;;;;;;;;;;;;;;1007476;29;911;-25
2021/12/28 03:26:27;;;;;;;;;;;;;;;;;;1007875;29;1327;-25
2021/12/28 03:26:58;;;;;;;;;;;;;;;;;;1011190;29;816;-25
2021/12/28 03:27:28;;;;;;;;;;;;;;;;;;1011302;29;892;-25
2021/12/28 03:28:00;;;;;;;;;;;;;;;;;;1011362;29;951;-25
2021/12/28 03:28:32;;;;;;;;;;;;;;;;;;1011640;29;823;-25
2021/12/28 03:29:02;;;;;;;;;;;;;;;;;;1011518;29;867;-25
2021/12/28 03:29:33;;;;;;;;;;;;;;;;;;1011713;29;935;-25
2021/12/28 03:30:05;;;;;;;;;;;;;;;;;;1011047;29;1138;-25
2021/12/28 03:30:35;;;;;;;;;;;;;;;;;;1010917;29;1072;-25
2021/12/28 03:31:06;;;;;;;;;;;;;;;;;;1011061;29;778;-25
2021/12/28 03:31:37;;;;;;;;;;;;;;;;;;1011289;29;1377;-24
2021/12/28 03:32:07;;;;;;;;;;;;;;;;;;1011252;29;935;-25
2021/12/28 03:32:38;;;;;;;;;;;;;;;;;;1011183;29;951;-25
2021/12/28 03:33:08;;;;;;;;;;;;;;;;;;1011236;29;870;-25
2021/12/28 03:33:40;;;;;;;;;;;;;;;;;;1011609;29;951;-25
2021/12/28 03:34:10;;;;;;;;;;;;;;;;;;1011595;29;1180;-25
2021/12/28 03:34:40;;;;;;;;;;;;;;;;;;1011684;29;971;-25
2021/12/28 03:35:12;;;;;;;;;;;;;;;;;;1011480;29;820;-25
2021/12/28 03:35:42;;;;;;;;;;;;;;;;;;1011535;29;899;-25
2021/12/28 03:36:13;;;;;;;;;;;;;;;;;;1011576;29;999;-25
2021/12/28 03:36:44;;;;;;;;;;;;;;;;;;1011552;29;911;-25
2021/12/28 03:37:14;;;;;;;;;;;;;;;;;;1011594;29;1911;-25
2021/12/28 03:37:45;;;;;;;;;;;;;;;;;;1011496;29;1014;-25
2021/12/28 03:38:15;;;;;;;;;;;;;;;;;;1011623;29;931;-25
2021/12/28 03:38:47;;;;;;;;;;;;;;;;;;1011145;29;853;-25
2021/12/28 03:39:17;;;;;;;;;;;;;;;;;;1011277;29;934;-25
2021/12/28 03:39:47;;;;;;;;;;;;;;;;;;1011253;29;939;-25
2021/12/28 03:40:18;;;;;;;;;;;;;;;;;;1011346;29;880;-25
2021/12/28 03:40:48;;;;;;;;;;;;;;;;;;1011582;29;812;-25
2021/12/28 03:41:19;;;;;;;;;;;;;;;;;;1011588;29;947;-25
2021/12/28 03:41:50;;;;;;;;;;;;;;;;;;1011444;29;1685;-25